sensor_id;sensor_type;location;lat;lon;timestamp;temperature;humidity
55135;DHT22;41031;44.750;11.308;2023-03-29T00:02:13;8.10;66.60
55135;DHT22;41031;44.750;11.308;2023-03-29T00:04:40;8.00;66.20
55135;DHT22;41031;44.750;11.308;2023-03-29T00:07:07;7.90;65.80
55135;DHT22;41031;44.750;11.308;2023-03-29T00:09:35;7.90;65.70
55135;DHT22;41031;44.750;11.308;2023-03-29T00:12:02;7.90;65.50
55135;DHT22;41031;44.750;11.308;2023-03-29T00:14:29;7.80;65.60
55135;DHT22;41031;44.750;11.308;2023-03-29T00:16:57;7.80;66.30
55135;DHT22;41031;44.750;11.308;2023-03-29T00:19:24;7.80;67.00
55135;DHT22;41031;44.750;11.308;2023-03-29T00:21:51;7.80;67.20
55135;DHT22;41031;44.750;11.308;2023-03-29T00:24:18;7.70;66.80
55135;DHT22;41031;44.750;11.308;2023-03-29T00:26:47;7.70;66.50
55135;DHT22;41031;44.750;11.308;2023-03-29T00:29:14;7.60;65.60
55135;DHT22;41031;44.750;11.308;2023-03-29T00:31:42;7.60;66.00
55135;DHT22;41031;44.750;11.308;2023-03-29T00:34:22;7.50;66.30
55135;DHT22;41031;44.750;11.308;2023-03-29T00:36:49;7.60;66.00
55135;DHT22;41031;44.750;11.308;2023-03-29T00:39:17;7.50;66.70
55135;DHT22;41031;44.750;11.308;2023-03-29T00:41:46;7.50;67.30
55135;DHT22;41031;44.750;11.308;2023-03-29T00:45:15;7.50;68.00
55135;DHT22;41031;44.750;11.308;2023-03-29T00:47:55;7.60;68.90
55135;DHT22;41031;44.750;11.308;2023-03-29T00:50:27;7.60;69.10
55135;DHT22;41031;44.750;11.308;2023-03-29T00:55:48;7.60;69.60
55135;DHT22;41031;44.750;11.308;2023-03-29T00:58:23;7.70;69.70
55135;DHT22;41031;44.750;11.308;2023-03-29T01:01:03;7.70;69.50
55135;DHT22;41031;44.750;11.308;2023-03-29T01:03:35;7.80;69.30
55135;DHT22;41031;44.750;11.308;2023-03-29T01:06:07;7.80;69.60
55135;DHT22;41031;44.750;11.308;2023-03-29T01:08:57;7.80;69.50
55135;DHT22;41031;44.750;11.308;2023-03-29T01:11:37;7.90;69.00
55135;DHT22;41031;44.750;11.308;2023-03-29T01:14:22;7.90;68.20
55135;DHT22;41031;44.750;11.308;2023-03-29T01:16:49;7.90;67.30
55135;DHT22;41031;44.750;11.308;2023-03-29T01:19:19;7.90;67.80
55135;DHT22;41031;44.750;11.308;2023-03-29T01:21:59;7.90;68.70
55135;DHT22;41031;44.750;11.308;2023-03-29T01:24:51;7.90;69.00
55135;DHT22;41031;44.750;11.308;2023-03-29T01:31:10;8.00;70.10
55135;DHT22;41031;44.750;11.308;2023-03-29T01:33:41;8.00;70.70
55135;DHT22;41031;44.750;11.308;2023-03-29T01:36:19;8.00;71.10
55135;DHT22;41031;44.750;11.308;2023-03-29T01:38:53;8.10;70.70
55135;DHT22;41031;44.750;11.308;2023-03-29T01:41:28;8.10;71.00
55135;DHT22;41031;44.750;11.308;2023-03-29T01:44:16;8.20;71.40
55135;DHT22;41031;44.750;11.308;2023-03-29T01:46:46;8.20;71.50
55135;DHT22;41031;44.750;11.308;2023-03-29T01:49:35;8.20;71.60
55135;DHT22;41031;44.750;11.308;2023-03-29T01:52:58;8.20;70.80
55135;DHT22;41031;44.750;11.308;2023-03-29T01:55:21;8.30;70.40
55135;DHT22;41031;44.750;11.308;2023-03-29T01:57:51;8.30;69.70
55135;DHT22;41031;44.750;11.308;2023-03-29T02:00:22;8.30;68.70
55135;DHT22;41031;44.750;11.308;2023-03-29T02:02:53;8.30;68.10
55135;DHT22;41031;44.750;11.308;2023-03-29T02:05:25;8.40;68.50
55135;DHT22;41031;44.750;11.308;2023-03-29T02:07:58;8.40;68.80
55135;DHT22;41031;44.750;11.308;2023-03-29T02:10:26;8.40;69.10
55135;DHT22;41031;44.750;11.308;2023-03-29T02:12:53;8.40;69.60
55135;DHT22;41031;44.750;11.308;2023-03-29T02:15:21;8.40;70.00
55135;DHT22;41031;44.750;11.308;2023-03-29T02:17:50;8.40;70.00
55135;DHT22;41031;44.750;11.308;2023-03-29T02:20:35;8.40;70.50
55135;DHT22;41031;44.750;11.308;2023-03-29T02:23:21;8.40;70.90
55135;DHT22;41031;44.750;11.308;2023-03-29T02:25:51;8.40;70.60
55135;DHT22;41031;44.750;11.308;2023-03-29T02:28:24;8.40;70.40
55135;DHT22;41031;44.750;11.308;2023-03-29T02:31:00;8.40;70.50
55135;DHT22;41031;44.750;11.308;2023-03-29T02:36:28;8.50;70.10
55135;DHT22;41031;44.750;11.308;2023-03-29T02:38:59;8.50;69.90
55135;DHT22;41031;44.750;11.308;2023-03-29T02:41:27;8.50;69.70
55135;DHT22;41031;44.750;11.308;2023-03-29T02:43:55;8.50;70.20
55135;DHT22;41031;44.750;11.308;2023-03-29T02:46:23;8.50;70.20
55135;DHT22;41031;44.750;11.308;2023-03-29T02:48:52;8.50;70.00
55135;DHT22;41031;44.750;11.308;2023-03-29T02:51:23;8.50;69.70
55135;DHT22;41031;44.750;11.308;2023-03-29T02:56:25;8.50;69.40
55135;DHT22;41031;44.750;11.308;2023-03-29T02:58:52;8.50;69.20
55135;DHT22;41031;44.750;11.308;2023-03-29T03:01:20;8.50;68.70
55135;DHT22;41031;44.750;11.308;2023-03-29T03:03:49;8.40;68.40
55135;DHT22;41031;44.750;11.308;2023-03-29T03:06:18;8.40;68.50
55135;DHT22;41031;44.750;11.308;2023-03-29T03:08:47;8.40;68.80
55135;DHT22;41031;44.750;11.308;2023-03-29T03:11:14;8.30;68.80
55135;DHT22;41031;44.750;11.308;2023-03-29T03:13:41;8.40;68.90
55135;DHT22;41031;44.750;11.308;2023-03-29T03:16:08;8.30;69.00
55135;DHT22;41031;44.750;11.308;2023-03-29T03:18:36;8.30;69.00
55135;DHT22;41031;44.750;11.308;2023-03-29T03:21:04;8.30;68.80
55135;DHT22;41031;44.750;11.308;2023-03-29T03:23:31;8.30;69.40
55135;DHT22;41031;44.750;11.308;2023-03-29T03:25:58;8.30;70.10
55135;DHT22;41031;44.750;11.308;2023-03-29T03:28:26;8.30;70.70
55135;DHT22;41031;44.750;11.308;2023-03-29T03:30:54;8.30;71.70
55135;DHT22;41031;44.750;11.308;2023-03-29T03:33:50;8.40;72.40
55135;DHT22;41031;44.750;11.308;2023-03-29T03:36:32;8.40;72.80
55135;DHT22;41031;44.750;11.308;2023-03-29T03:39:01;8.40;73.30
55135;DHT22;41031;44.750;11.308;2023-03-29T03:41:33;8.40;73.60
55135;DHT22;41031;44.750;11.308;2023-03-29T03:44:00;8.30;73.50
55135;DHT22;41031;44.750;11.308;2023-03-29T03:46:27;8.30;73.50
55135;DHT22;41031;44.750;11.308;2023-03-29T03:48:56;8.40;73.80
55135;DHT22;41031;44.750;11.308;2023-03-29T03:51:33;8.40;73.80
55135;DHT22;41031;44.750;11.308;2023-03-29T03:54:00;8.40;73.80
55135;DHT22;41031;44.750;11.308;2023-03-29T03:56:50;8.40;73.80
55135;DHT22;41031;44.750;11.308;2023-03-29T03:59:37;8.40;73.60
55135;DHT22;41031;44.750;11.308;2023-03-29T04:02:10;8.40;73.60
55135;DHT22;41031;44.750;11.308;2023-03-29T04:04:38;8.40;73.60
55135;DHT22;41031;44.750;11.308;2023-03-29T04:07:16;8.40;73.60
55135;DHT22;41031;44.750;11.308;2023-03-29T04:09:55;8.30;73.40
55135;DHT22;41031;44.750;11.308;2023-03-29T04:12:41;8.30;73.60
55135;DHT22;41031;44.750;11.308;2023-03-29T04:15:08;8.20;73.60
55135;DHT22;41031;44.750;11.308;2023-03-29T04:17:38;8.20;73.60
55135;DHT22;41031;44.750;11.308;2023-03-29T04:20:17;8.20;73.50
55135;DHT22;41031;44.750;11.308;2023-03-29T04:22:44;8.10;73.10
55135;DHT22;41031;44.750;11.308;2023-03-29T04:25:12;8.10;73.10
55135;DHT22;41031;44.750;11.308;2023-03-29T04:27:49;8.10;72.90
55135;DHT22;41031;44.750;11.308;2023-03-29T04:30:34;8.10;72.70
55135;DHT22;41031;44.750;11.308;2023-03-29T04:33:11;8.00;72.10
55135;DHT22;41031;44.750;11.308;2023-03-29T04:35:41;8.00;72.00
55135;DHT22;41031;44.750;11.308;2023-03-29T04:38:12;8.00;72.60
55135;DHT22;41031;44.750;11.308;2023-03-29T04:40:40;8.00;72.90
55135;DHT22;41031;44.750;11.308;2023-03-29T04:43:45;8.00;73.20
55135;DHT22;41031;44.750;11.308;2023-03-29T04:46:21;8.00;73.90
55135;DHT22;41031;44.750;11.308;2023-03-29T04:49:09;7.90;74.00
55135;DHT22;41031;44.750;11.308;2023-03-29T04:51:40;7.90;74.40
55135;DHT22;41031;44.750;11.308;2023-03-29T04:54:08;7.90;74.50
55135;DHT22;41031;44.750;11.308;2023-03-29T04:57:01;7.80;74.40
55135;DHT22;41031;44.750;11.308;2023-03-29T04:59:48;7.80;74.40
55135;DHT22;41031;44.750;11.308;2023-03-29T05:02:31;7.80;74.30
55135;DHT22;41031;44.750;11.308;2023-03-29T05:04:59;7.80;74.60
55135;DHT22;41031;44.750;11.308;2023-03-29T05:07:26;7.80;74.90
55135;DHT22;41031;44.750;11.308;2023-03-29T05:09:53;7.80;75.20
55135;DHT22;41031;44.750;11.308;2023-03-29T05:12:20;7.80;75.20
55135;DHT22;41031;44.750;11.308;2023-03-29T05:14:52;7.80;75.00
55135;DHT22;41031;44.750;11.308;2023-03-29T05:17:22;7.80;75.00
55135;DHT22;41031;44.750;11.308;2023-03-29T05:19:55;7.80;75.20
55135;DHT22;41031;44.750;11.308;2023-03-29T05:22:24;7.80;75.10
55135;DHT22;41031;44.750;11.308;2023-03-29T05:24:51;7.80;75.00
55135;DHT22;41031;44.750;11.308;2023-03-29T05:27:19;7.80;74.90
55135;DHT22;41031;44.750;11.308;2023-03-29T05:29:59;7.80;75.00
55135;DHT22;41031;44.750;11.308;2023-03-29T05:32:35;7.80;75.10
55135;DHT22;41031;44.750;11.308;2023-03-29T05:35:04;7.80;75.60
55135;DHT22;41031;44.750;11.308;2023-03-29T05:37:33;7.80;76.20
55135;DHT22;41031;44.750;11.308;2023-03-29T05:40:01;7.70;76.60
55135;DHT22;41031;44.750;11.308;2023-03-29T05:42:56;7.80;77.10
55135;DHT22;41031;44.750;11.308;2023-03-29T05:45:25;7.80;77.10
55135;DHT22;41031;44.750;11.308;2023-03-29T05:47:54;7.90;77.10
55135;DHT22;41031;44.750;11.308;2023-03-29T05:50:23;7.90;77.10
55135;DHT22;41031;44.750;11.308;2023-03-29T05:52:50;7.90;77.20
55135;DHT22;41031;44.750;11.308;2023-03-29T05:55:18;8.00;77.10
55135;DHT22;41031;44.750;11.308;2023-03-29T05:57:45;8.00;76.90
55135;DHT22;41031;44.750;11.308;2023-03-29T06:00:13;8.10;76.90
55135;DHT22;41031;44.750;11.308;2023-03-29T06:02:49;8.10;76.90
55135;DHT22;41031;44.750;11.308;2023-03-29T06:05:20;8.10;76.60
55135;DHT22;41031;44.750;11.308;2023-03-29T06:07:57;8.20;76.20
55135;DHT22;41031;44.750;11.308;2023-03-29T06:10:47;8.20;76.00
55135;DHT22;41031;44.750;11.308;2023-03-29T06:13:27;8.30;75.80
55135;DHT22;41031;44.750;11.308;2023-03-29T06:15:54;8.30;75.80
55135;DHT22;41031;44.750;11.308;2023-03-29T06:18:23;8.50;75.80
55135;DHT22;41031;44.750;11.308;2023-03-29T06:20:51;8.80;74.90
55135;DHT22;41031;44.750;11.308;2023-03-29T06:23:20;9.00;74.00
55135;DHT22;41031;44.750;11.308;2023-03-29T06:25:47;9.40;73.20
55135;DHT22;41031;44.750;11.308;2023-03-29T06:28:17;9.70;72.00
55135;DHT22;41031;44.750;11.308;2023-03-29T06:30:45;9.80;71.60
55135;DHT22;41031;44.750;11.308;2023-03-29T06:33:13;9.90;71.80
55135;DHT22;41031;44.750;11.308;2023-03-29T06:36:01;10.00;72.20
55135;DHT22;41031;44.750;11.308;2023-03-29T06:38:29;10.00;72.50
55135;DHT22;41031;44.750;11.308;2023-03-29T06:41:05;10.10;72.70
55135;DHT22;41031;44.750;11.308;2023-03-29T06:44:11;10.10;72.70
55135;DHT22;41031;44.750;11.308;2023-03-29T06:46:52;10.30;73.10
55135;DHT22;41031;44.750;11.308;2023-03-29T06:49:20;10.40;72.90
55135;DHT22;41031;44.750;11.308;2023-03-29T06:52:16;10.50;72.50
55135;DHT22;41031;44.750;11.308;2023-03-29T06:54:45;10.70;72.10
55135;DHT22;41031;44.750;11.308;2023-03-29T06:57:12;10.80;71.80
55135;DHT22;41031;44.750;11.308;2023-03-29T06:59:39;10.90;71.20
55135;DHT22;41031;44.750;11.308;2023-03-29T07:02:20;10.90;69.80
55135;DHT22;41031;44.750;11.308;2023-03-29T07:04:54;11.10;69.30
55135;DHT22;41031;44.750;11.308;2023-03-29T07:07:26;11.10;69.10
55135;DHT22;41031;44.750;11.308;2023-03-29T07:10:13;11.20;69.30
55135;DHT22;41031;44.750;11.308;2023-03-29T07:12:59;11.40;69.00
55135;DHT22;41031;44.750;11.308;2023-03-29T07:15:27;11.50;68.60
55135;DHT22;41031;44.750;11.308;2023-03-29T07:18:13;11.60;68.40
55135;DHT22;41031;44.750;11.308;2023-03-29T07:20:40;11.70;67.30
55135;DHT22;41031;44.750;11.308;2023-03-29T07:23:08;11.80;66.90
55135;DHT22;41031;44.750;11.308;2023-03-29T07:25:37;11.90;66.70
55135;DHT22;41031;44.750;11.308;2023-03-29T07:28:04;12.00;66.20
55135;DHT22;41031;44.750;11.308;2023-03-29T07:30:32;12.10;65.70
55135;DHT22;41031;44.750;11.308;2023-03-29T07:33:15;12.20;65.30
55135;DHT22;41031;44.750;11.308;2023-03-29T07:35:47;12.30;65.10
55135;DHT22;41031;44.750;11.308;2023-03-29T07:38:15;12.50;64.80
55135;DHT22;41031;44.750;11.308;2023-03-29T07:40:47;12.50;63.90
55135;DHT22;41031;44.750;11.308;2023-03-29T07:43:33;12.70;63.40
55135;DHT22;41031;44.750;11.308;2023-03-29T07:46:04;12.80;62.40
55135;DHT22;41031;44.750;11.308;2023-03-29T07:48:33;12.90;61.20
55135;DHT22;41031;44.750;11.308;2023-03-29T07:51:06;13.00;61.00
55135;DHT22;41031;44.750;11.308;2023-03-29T07:53:44;13.20;60.70
55135;DHT22;41031;44.750;11.308;2023-03-29T07:56:29;13.30;61.10
55135;DHT22;41031;44.750;11.308;2023-03-29T07:59:19;13.40;60.70
55135;DHT22;41031;44.750;11.308;2023-03-29T08:01:59;13.50;60.70
55135;DHT22;41031;44.750;11.308;2023-03-29T08:04:34;13.70;60.40
55135;DHT22;41031;44.750;11.308;2023-03-29T08:07:15;13.90;60.10
55135;DHT22;41031;44.750;11.308;2023-03-29T08:10:06;14.00;59.10
55135;DHT22;41031;44.750;11.308;2023-03-29T08:12:57;14.10;59.20
55135;DHT22;41031;44.750;11.308;2023-03-29T08:15:35;14.30;58.50
55135;DHT22;41031;44.750;11.308;2023-03-29T08:18:17;14.50;56.40
55135;DHT22;41031;44.750;11.308;2023-03-29T08:20:44;14.50;56.90
55135;DHT22;41031;44.750;11.308;2023-03-29T08:23:11;14.50;57.30
55135;DHT22;41031;44.750;11.308;2023-03-29T08:25:58;14.50;56.30
55135;DHT22;41031;44.750;11.308;2023-03-29T08:28:26;14.60;57.00
55135;DHT22;41031;44.750;11.308;2023-03-29T08:30:54;14.70;57.00
55135;DHT22;41031;44.750;11.308;2023-03-29T08:33:21;14.90;56.90
55135;DHT22;41031;44.750;11.308;2023-03-29T08:35:59;15.00;57.20
55135;DHT22;41031;44.750;11.308;2023-03-29T08:38:29;15.10;56.70
55135;DHT22;41031;44.750;11.308;2023-03-29T08:40:57;15.10;57.40
55135;DHT22;41031;44.750;11.308;2023-03-29T08:43:51;15.30;56.70
55135;DHT22;41031;44.750;11.308;2023-03-29T08:49:36;15.50;55.60
55135;DHT22;41031;44.750;11.308;2023-03-29T08:52:35;15.60;55.90
55135;DHT22;41031;44.750;11.308;2023-03-29T08:55:34;15.80;55.30
55135;DHT22;41031;44.750;11.308;2023-03-29T08:58:35;16.10;54.90
55135;DHT22;41031;44.750;11.308;2023-03-29T09:01:05;16.30;53.90
55135;DHT22;41031;44.750;11.308;2023-03-29T09:03:48;16.40;54.00
55135;DHT22;41031;44.750;11.308;2023-03-29T09:06:31;16.50;53.90
55135;DHT22;41031;44.750;11.308;2023-03-29T09:09:14;16.60;54.40
55135;DHT22;41031;44.750;11.308;2023-03-29T09:12:00;16.70;52.80
55135;DHT22;41031;44.750;11.308;2023-03-29T09:17:36;16.70;52.30
55135;DHT22;41031;44.750;11.308;2023-03-29T09:23:31;16.90;51.80
55135;DHT22;41031;44.750;11.308;2023-03-29T09:29:37;17.40;50.90
55135;DHT22;41031;44.750;11.308;2023-03-29T09:32:23;17.60;49.90
55135;DHT22;41031;44.750;11.308;2023-03-29T09:35:21;17.80;48.60
55135;DHT22;41031;44.750;11.308;2023-03-29T09:37:52;18.00;47.70
55135;DHT22;41031;44.750;11.308;2023-03-29T09:40:40;18.00;47.70
55135;DHT22;41031;44.750;11.308;2023-03-29T09:43:23;18.00;47.30
55135;DHT22;41031;44.750;11.308;2023-03-29T09:45:54;18.20;47.50
55135;DHT22;41031;44.750;11.308;2023-03-29T09:48:24;18.30;48.00
55135;DHT22;41031;44.750;11.308;2023-03-29T09:50:55;18.40;47.20
55135;DHT22;41031;44.750;11.308;2023-03-29T09:53:23;18.50;46.40
55135;DHT22;41031;44.750;11.308;2023-03-29T09:56:06;18.60;45.90
55135;DHT22;41031;44.750;11.308;2023-03-29T09:58:44;18.60;45.00
55135;DHT22;41031;44.750;11.308;2023-03-29T10:01:15;18.70;44.20
55135;DHT22;41031;44.750;11.308;2023-03-29T10:03:53;18.70;43.90
55135;DHT22;41031;44.750;11.308;2023-03-29T10:06:23;18.70;43.40
55135;DHT22;41031;44.750;11.308;2023-03-29T10:08:56;18.60;43.50
55135;DHT22;41031;44.750;11.308;2023-03-29T10:11:36;18.70;43.30
55135;DHT22;41031;44.750;11.308;2023-03-29T10:14:11;18.80;44.70
55135;DHT22;41031;44.750;11.308;2023-03-29T10:16:40;18.90;44.20
55135;DHT22;41031;44.750;11.308;2023-03-29T10:19:21;18.90;43.20
55135;DHT22;41031;44.750;11.308;2023-03-29T10:21:49;18.80;44.20
55135;DHT22;41031;44.750;11.308;2023-03-29T10:24:20;18.80;43.30
55135;DHT22;41031;44.750;11.308;2023-03-29T10:26:50;18.60;42.80
55135;DHT22;41031;44.750;11.308;2023-03-29T10:29:23;18.50;43.20
55135;DHT22;41031;44.750;11.308;2023-03-29T10:31:51;18.40;43.90
55135;DHT22;41031;44.750;11.308;2023-03-29T10:34:19;18.50;44.60
55135;DHT22;41031;44.750;11.308;2023-03-29T10:36:58;18.60;44.30
55135;DHT22;41031;44.750;11.308;2023-03-29T10:39:28;18.60;43.10
55135;DHT22;41031;44.750;11.308;2023-03-29T10:41:59;18.60;43.40
55135;DHT22;41031;44.750;11.308;2023-03-29T10:44:32;18.50;43.00
55135;DHT22;41031;44.750;11.308;2023-03-29T10:47:14;18.50;43.30
55135;DHT22;41031;44.750;11.308;2023-03-29T10:49:53;18.50;44.20
55135;DHT22;41031;44.750;11.308;2023-03-29T10:52:23;18.60;43.00
55135;DHT22;41031;44.750;11.308;2023-03-29T10:54:52;18.60;44.20
55135;DHT22;41031;44.750;11.308;2023-03-29T10:57:49;18.70;44.90
55135;DHT22;41031;44.750;11.308;2023-03-29T11:19:34;19.40;42.80
55135;DHT22;41031;44.750;11.308;2023-03-29T11:22:13;19.20;41.90
55135;DHT22;41031;44.750;11.308;2023-03-29T11:36:31;19.10;43.00
55135;DHT22;41031;44.750;11.308;2023-03-29T11:39:13;19.20;43.30
55135;DHT22;41031;44.750;11.308;2023-03-29T11:41:45;19.20;45.70
55135;DHT22;41031;44.750;11.308;2023-03-29T11:44:21;19.10;45.20
55135;DHT22;41031;44.750;11.308;2023-03-29T11:47:14;19.10;45.50
55135;DHT22;41031;44.750;11.308;2023-03-29T11:52:32;19.40;45.50
55135;DHT22;41031;44.750;11.308;2023-03-29T11:55:19;19.60;46.00
55135;DHT22;41031;44.750;11.308;2023-03-29T11:57:53;20.00;45.20
55135;DHT22;41031;44.750;11.308;2023-03-29T12:05:57;20.70;43.00
55135;DHT22;41031;44.750;11.308;2023-03-29T12:08:30;20.80;42.00
55135;DHT22;41031;44.750;11.308;2023-03-29T12:14:15;20.80;42.10
55135;DHT22;41031;44.750;11.308;2023-03-29T12:16:57;20.70;42.00
55135;DHT22;41031;44.750;11.308;2023-03-29T12:19:34;20.60;42.20
55135;DHT22;41031;44.750;11.308;2023-03-29T12:22:08;20.40;43.20
55135;DHT22;41031;44.750;11.308;2023-03-29T12:24:41;20.30;43.60
55135;DHT22;41031;44.750;11.308;2023-03-29T12:28:27;20.20;42.70
55135;DHT22;41031;44.750;11.308;2023-03-29T12:39:23;19.90;45.40
55135;DHT22;41031;44.750;11.308;2023-03-29T12:42:12;19.90;44.80
55135;DHT22;41031;44.750;11.308;2023-03-29T12:44:59;19.80;44.20
55135;DHT22;41031;44.750;11.308;2023-03-29T12:47:41;19.70;43.20
55135;DHT22;41031;44.750;11.308;2023-03-29T12:53:12;19.50;44.70
55135;DHT22;41031;44.750;11.308;2023-03-29T13:01:28;19.80;43.30
55135;DHT22;41031;44.750;11.308;2023-03-29T13:04:17;19.90;44.00
55135;DHT22;41031;44.750;11.308;2023-03-29T13:12:21;20.60;43.40
55135;DHT22;41031;44.750;11.308;2023-03-29T13:14:51;20.70;42.50
55135;DHT22;41031;44.750;11.308;2023-03-29T13:17:55;20.70;40.70
55135;DHT22;41031;44.750;11.308;2023-03-29T13:26:55;20.00;41.20
55135;DHT22;41031;44.750;11.308;2023-03-29T13:31:50;19.70;43.70
55135;DHT22;41031;44.750;11.308;2023-03-29T13:34:59;19.80;44.00
55135;DHT22;41031;44.750;11.308;2023-03-29T13:37:40;20.00;44.10
55135;DHT22;41031;44.750;11.308;2023-03-29T13:43:18;20.20;42.60
55135;DHT22;41031;44.750;11.308;2023-03-29T13:48:27;20.30;42.30
55135;DHT22;41031;44.750;11.308;2023-03-29T13:50:58;20.30;42.10
55135;DHT22;41031;44.750;11.308;2023-03-29T13:53:48;20.40;42.90
55135;DHT22;41031;44.750;11.308;2023-03-29T13:56:27;20.40;42.50
55135;DHT22;41031;44.750;11.308;2023-03-29T13:59:09;20.40;42.40
55135;DHT22;41031;44.750;11.308;2023-03-29T14:01:52;20.50;42.40
55135;DHT22;41031;44.750;11.308;2023-03-29T14:04:36;20.60;42.50
55135;DHT22;41031;44.750;11.308;2023-03-29T14:07:07;20.60;42.70
55135;DHT22;41031;44.750;11.308;2023-03-29T14:09:41;20.70;41.70
55135;DHT22;41031;44.750;11.308;2023-03-29T14:12:12;20.70;40.50
55135;DHT22;41031;44.750;11.308;2023-03-29T14:14:43;20.60;40.80
55135;DHT22;41031;44.750;11.308;2023-03-29T14:17:24;20.50;41.60
55135;DHT22;41031;44.750;11.308;2023-03-29T14:19:52;20.50;41.90
55135;DHT22;41031;44.750;11.308;2023-03-29T14:22:27;20.50;42.30
55135;DHT22;41031;44.750;11.308;2023-03-29T14:24:55;20.60;42.40
55135;DHT22;41031;44.750;11.308;2023-03-29T14:27:29;20.60;42.30
55135;DHT22;41031;44.750;11.308;2023-03-29T14:29:57;20.60;41.40
55135;DHT22;41031;44.750;11.308;2023-03-29T14:32:29;20.60;41.70
55135;DHT22;41031;44.750;11.308;2023-03-29T14:34:57;20.60;41.20
55135;DHT22;41031;44.750;11.308;2023-03-29T14:37:27;20.50;41.70
55135;DHT22;41031;44.750;11.308;2023-03-29T14:39:55;20.40;41.40
55135;DHT22;41031;44.750;11.308;2023-03-29T14:42:26;20.30;41.30
55135;DHT22;41031;44.750;11.308;2023-03-29T14:45:01;20.20;41.60
55135;DHT22;41031;44.750;11.308;2023-03-29T14:47:32;20.20;42.00
55135;DHT22;41031;44.750;11.308;2023-03-29T14:50:00;20.20;41.80
55135;DHT22;41031;44.750;11.308;2023-03-29T14:52:28;20.10;42.20
55135;DHT22;41031;44.750;11.308;2023-03-29T14:54:59;20.00;42.40
55135;DHT22;41031;44.750;11.308;2023-03-29T14:57:32;20.00;42.40
55135;DHT22;41031;44.750;11.308;2023-03-29T15:00:03;19.90;42.50
55135;DHT22;41031;44.750;11.308;2023-03-29T15:02:34;19.90;42.50
55135;DHT22;41031;44.750;11.308;2023-03-29T15:05:06;19.90;42.20
55135;DHT22;41031;44.750;11.308;2023-03-29T15:07:50;19.80;42.10
55135;DHT22;41031;44.750;11.308;2023-03-29T15:10:22;19.70;41.70
55135;DHT22;41031;44.750;11.308;2023-03-29T15:12:50;19.60;41.90
55135;DHT22;41031;44.750;11.308;2023-03-29T15:15:17;19.60;42.10
55135;DHT22;41031;44.750;11.308;2023-03-29T15:17:45;19.60;41.20
55135;DHT22;41031;44.750;11.308;2023-03-29T15:23:45;19.30;40.70
55135;DHT22;41031;44.750;11.308;2023-03-29T15:25:56;19.20;40.30
55135;DHT22;41031;44.750;11.308;2023-03-29T15:28:31;19.10;41.20
55135;DHT22;41031;44.750;11.308;2023-03-29T15:31:08;19.00;41.30
55135;DHT22;41031;44.750;11.308;2023-03-29T15:33:40;18.90;42.00
55135;DHT22;41031;44.750;11.308;2023-03-29T15:36:10;18.90;42.30
55135;DHT22;41031;44.750;11.308;2023-03-29T15:38:38;18.80;43.00
55135;DHT22;41031;44.750;11.308;2023-03-29T15:41:12;18.80;44.00
55135;DHT22;41031;44.750;11.308;2023-03-29T15:43:39;18.70;43.60
55135;DHT22;41031;44.750;11.308;2023-03-29T15:46:09;18.70;44.70
55135;DHT22;41031;44.750;11.308;2023-03-29T15:48:36;18.60;44.90
55135;DHT22;41031;44.750;11.308;2023-03-29T15:51:04;18.60;45.00
55135;DHT22;41031;44.750;11.308;2023-03-29T15:53:33;18.60;45.40
55135;DHT22;41031;44.750;11.308;2023-03-29T15:56:03;18.50;45.70
55135;DHT22;41031;44.750;11.308;2023-03-29T15:58:32;18.50;45.90
55135;DHT22;41031;44.750;11.308;2023-03-29T16:01:12;18.40;45.90
55135;DHT22;41031;44.750;11.308;2023-03-29T16:03:44;18.40;46.50
55135;DHT22;41031;44.750;11.308;2023-03-29T16:06:14;18.30;46.40
55135;DHT22;41031;44.750;11.308;2023-03-29T16:08:43;18.30;46.40
55135;DHT22;41031;44.750;11.308;2023-03-29T16:11:10;18.20;47.00
55135;DHT22;41031;44.750;11.308;2023-03-29T16:13:37;18.20;48.20
55135;DHT22;41031;44.750;11.308;2023-03-29T16:16:04;18.10;48.90
55135;DHT22;41031;44.750;11.308;2023-03-29T16:18:32;18.00;49.90
55135;DHT22;41031;44.750;11.308;2023-03-29T16:20:59;18.00;50.20
55135;DHT22;41031;44.750;11.308;2023-03-29T16:23:26;17.90;49.70
55135;DHT22;41031;44.750;11.308;2023-03-29T16:25:53;17.80;49.60
55135;DHT22;41031;44.750;11.308;2023-03-29T16:28:21;17.80;49.40
55135;DHT22;41031;44.750;11.308;2023-03-29T16:30:48;17.70;49.50
55135;DHT22;41031;44.750;11.308;2023-03-29T16:33:15;17.70;49.90
55135;DHT22;41031;44.750;11.308;2023-03-29T16:35:42;17.60;50.10
55135;DHT22;41031;44.750;11.308;2023-03-29T16:38:09;17.60;50.40
55135;DHT22;41031;44.750;11.308;2023-03-29T16:40:36;17.50;50.90
55135;DHT22;41031;44.750;11.308;2023-03-29T16:43:04;17.40;51.20
55135;DHT22;41031;44.750;11.308;2023-03-29T16:45:31;17.30;51.50
55135;DHT22;41031;44.750;11.308;2023-03-29T16:47:58;17.20;51.60
55135;DHT22;41031;44.750;11.308;2023-03-29T16:50:25;17.20;52.00
55135;DHT22;41031;44.750;11.308;2023-03-29T16:52:52;17.10;52.10
55135;DHT22;41031;44.750;11.308;2023-03-29T16:55:19;17.10;52.60
55135;DHT22;41031;44.750;11.308;2023-03-29T16:57:47;17.00;52.60
55135;DHT22;41031;44.750;11.308;2023-03-29T17:00:16;16.90;52.70
55135;DHT22;41031;44.750;11.308;2023-03-29T17:02:45;16.80;53.00
55135;DHT22;41031;44.750;11.308;2023-03-29T17:05:16;16.80;53.30
55135;DHT22;41031;44.750;11.308;2023-03-29T17:07:43;16.70;53.50
55135;DHT22;41031;44.750;11.308;2023-03-29T17:10:11;16.60;53.60
55135;DHT22;41031;44.750;11.308;2023-03-29T17:12:38;16.60;53.80
55135;DHT22;41031;44.750;11.308;2023-03-29T17:15:06;16.50;53.70
55135;DHT22;41031;44.750;11.308;2023-03-29T17:17:34;16.50;53.70
55135;DHT22;41031;44.750;11.308;2023-03-29T17:20:01;16.40;53.70
55135;DHT22;41031;44.750;11.308;2023-03-29T17:22:28;16.30;53.90
55135;DHT22;41031;44.750;11.308;2023-03-29T17:24:54;16.30;54.20
55135;DHT22;41031;44.750;11.308;2023-03-29T17:27:21;16.20;54.50
55135;DHT22;41031;44.750;11.308;2023-03-29T17:29:48;16.10;54.80
55135;DHT22;41031;44.750;11.308;2023-03-29T17:32:15;16.10;55.20
55135;DHT22;41031;44.750;11.308;2023-03-29T17:34:42;16.00;55.50
55135;DHT22;41031;44.750;11.308;2023-03-29T17:37:09;15.90;55.80
55135;DHT22;41031;44.750;11.308;2023-03-29T17:39:36;15.90;56.10
55135;DHT22;41031;44.750;11.308;2023-03-29T17:42:04;15.80;56.10
55135;DHT22;41031;44.750;11.308;2023-03-29T17:44:31;15.70;56.10
55135;DHT22;41031;44.750;11.308;2023-03-29T17:47:02;15.70;56.40
55135;DHT22;41031;44.750;11.308;2023-03-29T17:49:29;15.60;57.10
55135;DHT22;41031;44.750;11.308;2023-03-29T17:51:56;15.50;57.60
55135;DHT22;41031;44.750;11.308;2023-03-29T17:54:23;15.50;58.30